Time;durP1;ratioP1;P1;durP2;ratioP2;P2;SDS_P1;SDS_P2;PMS_P1;PMS_P2;Temp;Humidity;BMP_temperature;BMP_pressure;BME280_temperature;BME280_humidity;BME280_pressure;Samples;Min_cycle;Max_cycle;Signal;HPM_P1;HPM_P2
2022/02/08 00:00:49;;;;;;;22.38;21.20;;;8.10;73.70;;;;;;4930100;29;19914;-85
2022/02/08 00:03:16;;;;;;;23.00;21.50;;;8.10;73.60;;;;;;4931210;29;20403;-86
2022/02/08 00:05:45;;;;;;;22.90;21.67;;;8.10;73.60;;;;;;4931734;29;20036;-86
2022/02/08 00:08:11;;;;;;;21.95;20.85;;;8.10;73.70;;;;;;4931854;29;20048;-87
2022/02/08 00:10:38;;;;;;;22.58;21.55;;;8.00;73.60;;;;;;4931832;29;20040;-86
2022/02/08 00:13:04;;;;;;;22.80;21.70;;;8.00;73.70;;;;;;4932221;29;20427;-86
2022/02/08 00:15:30;;;;;;;23.52;22.15;;;8.00;73.80;;;;;;4931235;29;20048;-86
2022/02/08 00:17:57;;;;;;;21.55;20.45;;;7.90;73.80;;;;;;4931417;29;20047;-86
2022/02/08 00:20:23;;;;;;;22.17;20.98;;;8.00;73.80;;;;;;4931528;29;20032;-86
2022/02/08 00:22:49;;;;;;;21.90;20.88;;;7.90;73.90;;;;;;4931737;29;20071;-86
2022/02/08 00:25:15;;;;;;;21.90;20.80;;;8.00;73.90;;;;;;4930481;29;20046;-86
2022/02/08 00:27:41;;;;;;;22.42;21.33;;;7.90;73.80;;;;;;4931545;29;20175;-87
2022/02/08 00:30:08;;;;;;;21.58;20.58;;;7.90;73.90;;;;;;4931360;29;20043;-86
2022/02/08 00:32:34;;;;;;;22.83;21.73;;;7.90;73.90;;;;;;4960463;28;20027;-86
2022/02/08 00:35:00;;;;;;;24.17;22.88;;;7.90;73.80;;;;;;4978450;28;20043;-85
2022/02/08 00:37:26;;;;;;;21.65;20.63;;;7.90;73.80;;;;;;4965768;28;20042;-86
2022/02/08 00:39:52;;;;;;;21.08;20.08;;;7.90;73.90;;;;;;4973257;28;20043;-87
2022/02/08 00:42:20;;;;;;;20.13;19.13;;;7.90;73.90;;;;;;4971677;28;20045;-86
2022/02/08 00:45:06;;;;;;;19.58;18.67;;;7.90;73.90;;;;;;4972786;28;20508;-86
2022/02/08 00:47:37;;;;;;;20.17;19.17;;;7.90;73.90;;;;;;4962942;28;20043;-87
2022/02/08 00:50:08;;;;;;;20.88;19.77;;;7.90;73.90;;;;;;4974899;28;20047;-86
2022/02/08 00:52:36;;;;;;;22.25;20.95;;;7.90;73.90;;;;;;4969099;28;20051;-86
2022/02/08 00:55:03;;;;;;;21.33;20.23;;;7.90;73.90;;;;;;4986118;28;20065;-86
2022/02/08 00:57:29;;;;;;;20.20;19.20;;;7.90;73.90;;;;;;4962045;28;20023;-86
2022/02/08 00:59:55;;;;;;;21.33;20.33;;;7.90;73.90;;;;;;4976034;28;20385;-87
2022/02/08 01:02:21;;;;;;;21.77;20.40;;;8.00;73.80;;;;;;4966957;28;20036;-87
2022/02/08 01:04:53;;;;;;;22.10;21.00;;;8.00;73.80;;;;;;4971990;28;20026;-86
2022/02/08 01:07:19;;;;;;;21.10;20.10;;;8.00;73.80;;;;;;4968165;28;20472;-86
2022/02/08 01:09:54;;;;;;;21.75;20.65;;;8.10;73.80;;;;;;4975759;28;20031;-87
2022/02/08 01:12:21;;;;;;;22.17;20.67;;;8.10;73.80;;;;;;4959278;28;20029;-85
2022/02/08 01:14:49;;;;;;;21.33;20.23;;;8.10;73.70;;;;;;4975666;28;20041;-86
2022/02/08 01:17:16;;;;;;;21.15;20.08;;;8.20;73.70;;;;;;4966108;28;20043;-86
2022/02/08 01:19:56;;;;;;;23.52;21.83;;;8.20;73.60;;;;;;4970555;28;20504;-86
2022/02/08 01:22:22;;;;;;;21.90;20.80;;;8.20;73.60;;;;;;4984273;28;20445;-85
2022/02/08 01:24:49;;;;;;;20.52;19.52;;;8.30;73.60;;;;;;4963456;28;20035;-85
2022/02/08 01:27:16;;;;;;;22.40;21.20;;;8.20;73.50;;;;;;4975787;28;20065;-86
2022/02/08 01:40:14;;;;;;;;;;;8.40;73.60;;;;;;4919996;29;20043;-86
2022/02/08 01:45:44;;;;;;;21.58;20.58;;;8.40;73.50;;;;;;4903796;28;20051;-85
2022/02/08 01:48:16;;;;;;;21.05;20.05;;;8.50;73.50;;;;;;4914860;29;20044;-86
2022/02/08 01:50:43;;;;;;;20.90;19.90;;;8.50;73.60;;;;;;4915548;29;20535;-86
2022/02/08 01:53:09;;;;;;;21.08;20.08;;;8.50;73.70;;;;;;4915391;29;20511;-86
2022/02/08 01:55:37;;;;;;;20.92;19.88;;;8.50;73.70;;;;;;4914938;29;20047;-86
2022/02/08 01:58:03;;;;;;;20.73;19.73;;;8.50;73.70;;;;;;4915567;29;20056;-85
2022/02/08 02:00:29;;;;;;;20.92;19.85;;;8.50;73.70;;;;;;4914599;28;20040;-85
2022/02/08 02:02:56;;;;;;;20.55;19.65;;;8.50;73.80;;;;;;4914718;29;20048;-86
2022/02/08 02:05:22;;;;;;;20.60;19.70;;;8.50;73.90;;;;;;4915627;29;20043;-86
2022/02/08 02:07:49;;;;;;;20.42;19.52;;;8.50;74.00;;;;;;4914771;29;20491;-86
2022/02/08 02:10:16;;;;;;;21.38;20.27;;;8.50;74.00;;;;;;4914244;29;20032;-85
2022/02/08 02:12:58;;;;;;;20.63;19.55;;;8.50;74.00;;;;;;4972428;28;20047;-85
2022/02/08 02:15:24;;;;;;;20.52;19.52;;;8.50;74.10;;;;;;4959454;28;20046;-85
2022/02/08 02:17:50;;;;;;;20.23;19.23;;;8.60;74.00;;;;;;4970311;28;20027;-85
2022/02/08 02:20:17;;;;;;;19.75;18.70;;;8.60;74.00;;;;;;4974428;28;20039;-85
2022/02/08 02:22:43;;;;;;;19.42;18.52;;;8.60;74.10;;;;;;4973323;28;20031;-86
2022/02/08 02:25:19;;;;;;;20.75;19.75;;;8.60;74.10;;;;;;4974391;28;20038;-85
2022/02/08 02:27:48;;;;;;;20.42;19.42;;;8.60;74.10;;;;;;4988886;28;20027;-86
2022/02/08 02:30:15;;;;;;;19.92;18.92;;;8.60;74.20;;;;;;4959962;28;20026;-85
2022/02/08 02:32:41;;;;;;;19.77;18.77;;;8.60;74.20;;;;;;4973026;28;20518;-86
2022/02/08 02:35:07;;;;;;;20.42;19.42;;;8.60;74.20;;;;;;4974039;28;20042;-87
2022/02/08 02:37:33;;;;;;;19.70;18.80;;;8.60;74.30;;;;;;4983733;28;20027;-86
2022/02/08 02:39:59;;;;;;;19.70;18.80;;;8.60;74.30;;;;;;4967594;28;20528;-86
2022/02/08 02:42:27;;;;;;;19.58;18.58;;;8.70;74.50;;;;;;4973761;28;20413;-86
2022/02/08 02:44:53;;;;;;;19.60;18.70;;;8.60;74.30;;;;;;4969393;28;20047;-86
2022/02/08 02:47:22;;;;;;;19.63;18.73;;;8.70;74.40;;;;;;4973862;28;20050;-86
2022/02/08 02:49:48;;;;;;;19.92;19.02;;;8.70;74.50;;;;;;4973573;28;20027;-86
2022/02/08 02:52:14;;;;;;;20.63;19.63;;;8.70;74.50;;;;;;4973676;28;20046;-85
2022/02/08 02:54:40;;;;;;;19.42;18.52;;;8.70;74.50;;;;;;4971079;28;20055;-85
2022/02/08 02:57:06;;;;;;;19.70;18.80;;;8.70;74.60;;;;;;4986266;28;20524;-85
2022/02/08 02:59:35;;;;;;;20.08;19.17;;;8.70;74.70;;;;;;4973257;28;20042;-86
2022/02/08 03:20:30;;;;;;;19.50;18.60;;;8.80;74.70;;;;;;4971125;28;20037;-87
2022/02/08 03:22:56;;;;;;;19.17;18.27;;;8.80;74.70;;;;;;4967962;28;20031;-86
2022/02/08 03:25:22;;;;;;;19.50;18.60;;;8.80;74.80;;;;;;4976061;28;20030;-87
2022/02/08 03:27:48;;;;;;;19.55;18.65;;;8.80;74.90;;;;;;4958092;28;20042;-86
2022/02/08 03:30:14;;;;;;;18.77;17.88;;;8.80;74.90;;;;;;4967668;28;20475;-87
2022/02/08 03:32:40;;;;;;;18.75;17.85;;;8.90;75.00;;;;;;4970077;28;20035;-86
2022/02/08 03:35:08;;;;;;;19.40;18.50;;;8.90;75.00;;;;;;4968445;28;20038;-86
2022/02/08 03:37:35;;;;;;;19.15;18.25;;;8.90;75.00;;;;;;4969167;28;20082;-86
2022/02/08 03:40:13;;;;;;;19.23;18.33;;;8.90;75.00;;;;;;4973428;28;20035;-86
2022/02/08 03:42:56;;;;;;;19.40;18.50;;;9.00;75.10;;;;;;4972768;28;20033;-85
2022/02/08 03:45:22;;;;;;;19.02;18.13;;;9.00;75.10;;;;;;4970288;28;20039;-86
2022/02/08 03:47:49;;;;;;;19.20;18.30;;;9.00;75.00;;;;;;4973715;28;20122;-86
2022/02/08 03:50:15;;;;;;;18.83;17.92;;;9.00;75.20;;;;;;4961148;28;20035;-85
2022/02/08 03:52:41;;;;;;;19.38;18.45;;;9.00;75.20;;;;;;4976588;28;20055;-86
2022/02/08 03:55:08;;;;;;;19.10;18.20;;;9.00;75.20;;;;;;4963357;28;20038;-87
2022/02/08 03:57:34;;;;;;;20.25;19.25;;;9.00;75.20;;;;;;4987131;28;20046;-86
2022/02/08 04:00:00;;;;;;;19.20;18.30;;;9.10;75.30;;;;;;4971995;28;20030;-86
2022/02/08 04:05:01;;;;;;;18.80;17.90;;;9.00;75.30;;;;;;4970004;28;20034;-86
2022/02/08 04:07:35;;;;;;;19.27;18.38;;;9.10;75.40;;;;;;4972641;28;20023;-87
2022/02/08 04:10:03;;;;;;;19.75;18.63;;;9.10;75.40;;;;;;4972070;28;20047;-86
2022/02/08 04:13:00;;;;;;;19.33;18.33;;;9.10;75.30;;;;;;4986873;28;20043;-86
2022/02/08 04:15:44;;;;;;;18.77;17.88;;;9.20;75.40;;;;;;4971027;28;20039;-86
2022/02/08 04:42:40;;;;;;;19.35;18.45;;;9.10;75.80;;;;;;4976631;28;20050;-88
2022/02/08 04:45:20;;;;;;;19.17;18.27;;;9.10;75.80;;;;;;4973213;28;20113;-87
2022/02/08 04:48:16;;;;;;;19.92;18.95;;;9.10;75.80;;;;;;4976561;28;20039;-87
2022/02/08 04:50:34;;;;;;;19.30;18.40;;;9.20;75.90;;;;;;4973962;28;20046;-87
2022/02/08 04:53:08;;;;;;;18.67;17.80;;;9.20;75.90;;;;;;4975365;28;20051;-87
2022/02/08 04:55:54;;;;;;;18.90;18.00;;;9.20;75.90;;;;;;4975840;28;20022;-87
2022/02/08 04:58:48;;;;;;;19.60;18.70;;;9.20;75.90;;;;;;4975006;28;20035;-89
2022/02/08 05:01:36;;;;;;;19.15;18.25;;;9.20;75.90;;;;;;4972345;28;20105;-88
2022/02/08 05:37:22;;;;;;;19.05;18.15;;;9.20;76.30;;;;;;4977882;28;20417;-89
2022/02/08 05:42:27;;;;;;;18.85;17.95;;;9.20;76.30;;;;;;4975286;28;20034;-89
2022/02/08 05:45:07;;;;;;;18.52;17.67;;;9.30;76.40;;;;;;4972311;28;20034;-88
2022/02/08 05:47:40;;;;;;;19.40;18.50;;;9.30;76.40;;;;;;4972645;28;20027;-89
2022/02/08 05:50:11;;;;;;;19.90;18.67;;;9.30;76.40;;;;;;4968774;28;20061;-90
2022/02/08 05:55:12;;;;;;;18.50;17.67;;;9.30;76.50;;;;;;4963634;28;20023;-89
2022/02/08 05:57:38;;;;;;;19.50;18.40;;;9.30;76.50;;;;;;4965044;28;20038;-88
2022/02/08 06:00:06;;;;;;;19.13;18.23;;;9.30;76.60;;;;;;4974555;28;20031;-90
2022/02/08 06:02:32;;;;;;;19.08;18.17;;;9.30;76.60;;;;;;4967752;28;20023;-89
2022/02/08 06:04:58;;;;;;;19.80;18.70;;;9.30;76.60;;;;;;4972128;28;20046;-89
2022/02/08 06:07:24;;;;;;;19.55;18.63;;;9.30;76.60;;;;;;4974509;28;20035;-89
2022/02/08 06:09:54;;;;;;;19.08;18.17;;;9.30;76.60;;;;;;4974729;28;20023;-88
2022/02/08 06:12:25;;;;;;;18.95;18.05;;;9.30;76.70;;;;;;4974031;28;20050;-88
2022/02/08 06:15:00;;;;;;;18.98;18.08;;;9.30;76.80;;;;;;4970564;28;20038;-89
2022/02/08 06:17:26;;;;;;;19.23;18.33;;;9.30;76.80;;;;;;4959932;28;20054;-88
2022/02/08 06:19:56;;;;;;;18.98;18.08;;;9.30;76.80;;;;;;4972431;28;20039;-88
2022/02/08 06:22:22;;;;;;;19.50;18.60;;;9.30;76.80;;;;;;4974449;28;20034;-88
2022/02/08 06:24:49;;;;;;;18.63;17.77;;;9.40;76.90;;;;;;4974563;28;20035;-89
2022/02/08 06:27:15;;;;;;;18.70;17.80;;;9.30;76.80;;;;;;4973018;28;20074;-88
2022/02/08 06:29:41;;;;;;;19.42;18.52;;;9.40;76.90;;;;;;4973363;28;20038;-89
2022/02/08 06:32:08;;;;;;;19.52;18.63;;;9.40;76.90;;;;;;4973406;28;20065;-88
2022/02/08 06:34:34;;;;;;;19.17;18.27;;;9.40;76.90;;;;;;4973954;28;20042;-85
2022/02/08 06:37:07;;;;;;;18.67;17.80;;;9.40;77.00;;;;;;4985072;28;20054;-84
2022/02/08 06:39:36;;;;;;;19.40;18.50;;;9.40;77.00;;;;;;4975050;28;20034;-85
2022/02/08 06:42:03;;;;;;;18.83;17.92;;;9.50;77.00;;;;;;4973862;28;20050;-84
2022/02/08 06:44:29;;;;;;;19.20;18.30;;;9.50;77.00;;;;;;4961760;28;20034;-85
2022/02/08 06:46:55;;;;;;;18.70;17.80;;;9.50;77.00;;;;;;4971222;28;20042;-85
2022/02/08 06:49:21;;;;;;;19.25;18.35;;;9.50;77.00;;;;;;4972571;28;20086;-86
2022/02/08 06:51:48;;;;;;;18.92;18.02;;;9.50;77.00;;;;;;4963039;28;20409;-89
2022/02/08 06:54:14;;;;;;;19.48;18.58;;;9.50;77.40;;;;;;4961823;28;20038;-87
2022/02/08 06:56:40;;;;;;;19.40;18.50;;;9.50;77.10;;;;;;4974021;28;20042;-86
2022/02/08 06:59:08;;;;;;;19.38;18.48;;;9.40;77.10;;;;;;4964005;28;20441;-85
2022/02/08 07:01:36;;;;;;;19.10;18.20;;;9.50;77.20;;;;;;4976957;28;20039;-86
2022/02/08 07:04:04;;;;;;;19.52;18.63;;;9.40;77.30;;;;;;4971048;28;20042;-86
2022/02/08 07:06:30;;;;;;;19.60;18.70;;;9.40;77.30;;;;;;4988280;28;20034;-86
2022/02/08 07:08:56;;;;;;;18.23;17.40;;;9.40;77.30;;;;;;4963104;28;20031;-86
2022/02/08 07:11:22;;;;;;;18.92;18.02;;;9.40;77.30;;;;;;4972946;28;20042;-88
2022/02/08 07:13:49;;;;;;;19.65;18.75;;;9.40;77.40;;;;;;4971413;28;20039;-87
2022/02/08 07:16:15;;;;;;;19.35;18.45;;;9.40;77.40;;;;;;4967595;28;20045;-85
2022/02/08 07:18:42;;;;;;;19.33;18.42;;;9.40;77.40;;;;;;4969330;28;20378;-83
2022/02/08 07:21:08;;;;;;;19.77;18.77;;;9.40;77.40;;;;;;4975678;28;20038;-81
2022/02/08 07:23:34;;;;;;;18.80;17.90;;;9.40;77.40;;;;;;4971816;28;20398;-81
2022/02/08 07:26:01;;;;;;;18.95;18.05;;;9.50;77.60;;;;;;4971995;28;20030;-84
2022/02/08 07:28:27;;;;;;;19.48;18.58;;;9.40;77.50;;;;;;4986443;28;20085;-84
2022/02/08 07:31:00;;;;;;;19.27;18.38;;;9.40;77.50;;;;;;4971787;28;20046;-83
2022/02/08 07:33:27;;;;;;;19.88;18.98;;;9.40;77.60;;;;;;4955297;28;20042;-83
2022/02/08 07:36:10;;;;;;;19.85;18.95;;;9.40;77.60;;;;;;4972379;28;20042;-83
2022/02/08 07:38:39;;;;;;;19.50;18.50;;;9.40;77.60;;;;;;4971000;28;20050;-86
2022/02/08 07:43:32;;;;;;;19.35;18.45;;;9.40;77.60;;;;;;4986665;28;20036;-82
2022/02/08 07:45:58;;;;;;;20.33;19.23;;;9.40;77.60;;;;;;4968519;28;20038;-82
2022/02/08 07:48:25;;;;;;;19.35;18.45;;;9.40;77.70;;;;;;4969412;28;20023;-82
2022/02/08 07:50:52;;;;;;;19.35;18.45;;;9.40;77.70;;;;;;4955317;28;20046;-81
2022/02/08 07:53:19;;;;;;;18.67;17.77;;;9.40;77.70;;;;;;4971980;28;20482;-82
2022/02/08 07:55:45;;;;;;;20.52;19.02;;;9.40;77.70;;;;;;4969986;28;20393;-81
2022/02/08 07:58:11;;;;;;;19.35;18.45;;;9.40;77.80;;;;;;4971358;28;20053;-80
2022/02/08 08:00:37;;;;;;;18.88;17.98;;;9.40;77.70;;;;;;4951810;28;20042;-80
2022/02/08 08:03:07;;;;;;;18.95;18.05;;;9.40;77.80;;;;;;4971868;28;20053;-80
2022/02/08 08:05:33;;;;;;;19.08;17.88;;;9.40;77.80;;;;;;4971567;28;20051;-80
2022/02/08 08:07:59;;;;;;;18.15;17.35;;;9.40;77.80;;;;;;4971417;28;20440;-80
2022/02/08 08:10:30;;;;;;;19.48;18.48;;;9.40;77.80;;;;;;4987005;28;20037;-80
2022/02/08 08:12:57;;;;;;;19.23;18.33;;;9.40;77.80;;;;;;4971488;28;20034;-87
2022/02/08 08:15:35;;;;;;;18.35;17.55;;;9.40;77.80;;;;;;4967020;28;20050;-80
2022/02/08 08:18:03;;;;;;;19.10;18.20;;;9.50;77.90;;;;;;4968712;28;20053;-80
2022/02/08 08:20:29;;;;;;;19.10;18.20;;;9.40;77.80;;;;;;4971909;28;20425;-81
2022/02/08 08:22:55;;;;;;;19.42;18.52;;;9.40;77.80;;;;;;4968102;28;20031;-80
2022/02/08 08:25:21;;;;;;;19.08;18.17;;;9.40;77.90;;;;;;4968986;28;20500;-80
2022/02/08 08:27:47;;;;;;;18.40;17.50;;;9.40;77.80;;;;;;4969021;28;20034;-80
2022/02/08 08:30:13;;;;;;;18.80;17.80;;;9.40;77.90;;;;;;4970069;28;20029;-82
2022/02/08 08:32:39;;;;;;;18.23;17.42;;;9.40;77.90;;;;;;4972895;28;20497;-81
2022/02/08 08:35:07;;;;;;;18.77;17.88;;;9.40;77.90;;;;;;4967349;28;20500;-81
2022/02/08 08:37:38;;;;;;;19.20;18.30;;;9.40;78.00;;;;;;4971764;28;20042;-82
2022/02/08 08:40:15;;;;;;;19.48;18.58;;;9.40;78.00;;;;;;4971004;28;20379;-81
2022/02/08 08:42:57;;;;;;;18.88;17.98;;;9.40;78.00;;;;;;4969283;28;20394;-82
2022/02/08 08:53:34;;;;;;;18.52;17.67;;;9.50;77.90;;;;;;4949292;29;20423;-83
2022/02/08 08:56:00;;;;;;;18.30;17.50;;;9.50;77.90;;;;;;4950100;29;21208;-81
2022/02/08 08:58:28;;;;;;;18.98;18.08;;;9.40;77.90;;;;;;4950296;29;20039;-80
2022/02/08 09:00:55;;;;;;;18.45;17.65;;;9.40;78.00;;;;;;4941992;28;20038;-83
2022/02/08 09:03:21;;;;;;;18.30;17.50;;;9.30;78.10;;;;;;4932007;29;20671;-83
2022/02/08 09:05:47;;;;;;;18.92;18.02;;;9.30;78.30;;;;;;4946846;29;20035;-82
2022/02/08 09:08:13;;;;;;;17.75;16.95;;;9.30;78.30;;;;;;4950647;29;20043;-81
2022/02/08 09:10:53;;;;;;;18.52;17.63;;;9.20;78.40;;;;;;4933346;29;20183;-84
2022/02/08 09:14:03;;;;;;;18.17;17.38;;;9.20;78.50;;;;;;4945732;28;20027;-84
2022/02/08 09:27:07;;;;;;;18.77;17.88;;;9.00;78.90;;;;;;4957831;28;20042;-81
2022/02/08 09:29:37;;;;;;;18.73;17.83;;;9.00;78.80;;;;;;4938339;28;20379;-79
2022/02/08 09:32:13;;;;;;;18.40;17.50;;;9.00;78.60;;;;;;4973198;28;20039;-80
2022/02/08 09:34:41;;;;;;;18.83;17.92;;;9.00;78.60;;;;;;4968688;28;20035;-80
2022/02/08 09:37:09;;;;;;;18.58;17.58;;;9.10;78.70;;;;;;4959686;28;20051;-79
2022/02/08 09:39:35;;;;;;;19.48;18.48;;;9.10;78.60;;;;;;4992294;28;20038;-80
2022/02/08 09:42:02;;;;;;;18.45;17.52;;;9.20;78.60;;;;;;4975016;28;20314;-81
2022/02/08 09:44:32;;;;;;;18.90;18.00;;;9.20;78.30;;;;;;4972714;28;20054;-81
2022/02/08 09:47:00;;;;;;;19.30;18.30;;;9.30;78.30;;;;;;4980502;28;20410;-83
2022/02/08 09:49:27;;;;;;;17.85;17.05;;;9.30;78.30;;;;;;4967838;28;20047;-82
2022/02/08 09:51:53;;;;;;;18.17;17.38;;;9.40;78.20;;;;;;4972472;28;20050;-82
2022/02/08 09:54:20;;;;;;;18.90;18.00;;;9.40;78.30;;;;;;4962368;28;20054;-81
2022/02/08 09:56:46;;;;;;;18.65;17.73;;;9.40;78.30;;;;;;4973955;28;20050;-79
2022/02/08 09:59:12;;;;;;;18.58;17.67;;;9.40;78.20;;;;;;4972160;28;20045;-81
2022/02/08 10:01:38;;;;;;;19.23;18.33;;;9.50;78.10;;;;;;4970621;28;20397;-79
2022/02/08 10:04:04;;;;;;;18.48;17.58;;;9.50;78.10;;;;;;4981115;28;20038;-80
2022/02/08 10:06:31;;;;;;;18.70;17.80;;;9.40;78.10;;;;;;4994608;28;20023;-82
2022/02/08 10:09:08;;;;;;;18.75;17.85;;;9.40;78.30;;;;;;4966677;28;20023;-82
2022/02/08 10:11:45;;;;;;;18.92;18.02;;;9.40;78.40;;;;;;4972825;28;20054;-82
2022/02/08 10:14:39;;;;;;;19.27;18.27;;;9.40;78.30;;;;;;4986534;28;20045;-82
2022/02/08 10:22:35;;;;;;;18.75;17.85;;;9.40;78.10;;;;;;4966646;28;20061;-83
2022/02/08 10:25:20;;;;;;;18.92;17.67;;;9.40;78.30;;;;;;4968703;28;20054;-83
2022/02/08 10:38:44;;;;;;;18.88;17.95;;;9.50;78.00;;;;;;4964984;28;20073;-85
2022/02/08 10:41:23;;;;;;;19.63;18.70;;;9.60;78.00;;;;;;4955681;28;20027;-85
2022/02/08 10:44:06;;;;;;;19.08;18.17;;;9.60;78.00;;;;;;4967279;28;20047;-84
2022/02/08 10:46:33;;;;;;;19.77;18.45;;;9.50;77.90;;;;;;4959570;28;20035;-81
2022/02/08 10:49:10;;;;;;;19.00;18.10;;;9.50;78.10;;;;;;4971776;28;20528;-81
2022/02/08 10:51:53;;;;;;;18.58;17.67;;;9.50;77.90;;;;;;4969733;28;20047;-83
2022/02/08 10:57:02;;;;;;;18.30;17.40;;;9.50;78.10;;;;;;4971330;28;20479;-81
2022/02/08 10:59:43;;;;;;;18.17;17.38;;;9.50;78.10;;;;;;4987821;28;20058;-81
2022/02/08 11:02:20;;;;;;;18.70;17.45;;;9.50;78.10;;;;;;4969939;28;20043;-82
2022/02/08 11:07:56;;;;;;;18.00;17.20;;;9.70;78.00;;;;;;4989946;28;20397;-81
2022/02/08 11:12:50;;;;;;;18.40;17.60;;;9.80;77.70;;;;;;4977419;28;20057;-82
2022/02/08 11:15:44;;;;;;;18.23;17.42;;;9.90;77.70;;;;;;4955746;28;20038;-82
2022/02/08 11:19:03;;;;;;;19.17;18.27;;;9.80;77.40;;;;;;4971966;28;20035;-80
2022/02/08 11:21:59;;;;;;;19.83;18.92;;;9.80;77.60;;;;;;4962975;28;20521;-81
2022/02/08 11:26:37;;;;;;;19.40;18.50;;;9.80;77.70;;;;;;4978507;28;20038;-81
2022/02/08 11:29:24;;;;;;;19.20;18.30;;;9.80;77.60;;;;;;4987071;28;20390;-83
2022/02/08 11:32:09;;;;;;;19.65;18.65;;;9.90;77.60;;;;;;4968751;28;20045;-82
2022/02/08 11:46:39;;;;;;;19.80;18.80;;;9.90;77.50;;;;;;4969199;28;20034;-83
2022/02/08 11:52:03;;;;;;;19.85;18.92;;;10.10;77.50;;;;;;4957110;28;20053;-84
2022/02/08 11:54:59;;;;;;;20.20;19.30;;;10.20;77.40;;;;;;4946593;28;20038;-83
2022/02/08 12:02:52;;;;;;;21.42;20.42;;;10.40;76.70;;;;;;4964523;28;20047;-83
2022/02/08 12:05:48;;;;;;;22.55;21.45;;;10.40;76.80;;;;;;4951859;28;20118;-83
2022/02/08 12:08:11;;;;;;;19.92;19.02;;;10.40;76.90;;;;;;4960103;28;20051;-86
2022/02/08 12:10:43;;;;;;;21.95;20.50;;;10.40;77.00;;;;;;4967196;28;20050;-86
2022/02/08 12:13:31;;;;;;;21.10;20.00;;;10.30;77.10;;;;;;4969009;28;20042;-85
2022/02/08 12:56:27;;;;;;;21.75;20.65;;;10.60;76.60;;;;;;4974836;28;20049;-84
2022/02/08 14:01:38;;;;;;;1999.90;999.90;;;11.70;75.10;;;;;;4968086;28;20034;-84
2022/02/08 14:18:04;;;;;;;1999.90;999.90;;;13.50;72.90;;;;;;4939030;28;20043;-84
2022/02/08 14:23:40;;;;;;;1999.90;999.90;;;13.60;72.70;;;;;;4918192;29;20399;-86
2022/02/08 15:09:00;;;;;;;1999.90;999.90;;;13.40;73.00;;;;;;4985677;28;20027;-85
2022/02/08 15:11:34;;;;;;;1999.90;999.90;;;13.40;73.00;;;;;;4970269;28;20071;-83
2022/02/08 15:14:01;;;;;;;1999.90;999.90;;;13.50;73.10;;;;;;4972782;28;20051;-86
2022/02/08 15:16:30;;;;;;;1999.90;999.90;;;13.50;73.00;;;;;;4968777;28;20498;-83
2022/02/08 15:18:56;;;;;;;1999.90;999.90;;;13.60;72.80;;;;;;4965449;28;20050;-82
2022/02/08 15:21:28;;;;;;;1999.90;999.90;;;13.70;72.70;;;;;;4969925;28;20050;-84
2022/02/08 15:23:54;;;;;;;1999.90;999.90;;;13.70;72.60;;;;;;4966288;28;20046;-84
2022/02/08 15:26:20;;;;;;;1999.90;999.90;;;13.70;72.60;;;;;;4972270;28;20041;-83
2022/02/08 15:28:47;;;;;;;1999.90;999.90;;;13.80;72.60;;;;;;4970576;28;20047;-85
2022/02/08 15:31:13;;;;;;;1999.90;999.90;;;13.90;72.40;;;;;;4967101;28;20414;-86
2022/02/08 15:33:39;;;;;;;1999.90;999.90;;;14.00;72.40;;;;;;4965983;28;20031;-86
2022/02/08 15:36:05;;;;;;;1999.90;999.90;;;14.10;72.20;;;;;;4975809;28;20520;-84
2022/02/08 15:38:33;;;;;;;1999.90;999.90;;;14.10;72.00;;;;;;4969609;28;20049;-85
2022/02/08 15:41:00;;;;;;;1999.90;999.90;;;14.20;72.10;;;;;;4973337;28;20417;-85
2022/02/08 15:43:27;;;;;;;1999.90;999.90;;;14.20;72.10;;;;;;4971732;28;20390;-86
2022/02/08 15:46:01;;;;;;;1999.90;999.90;;;14.20;71.90;;;;;;4970700;28;20034;-83
2022/02/08 15:48:28;;;;;;;1999.90;999.90;;;14.10;72.00;;;;;;4957212;28;20073;-84
2022/02/08 15:51:19;;;;;;;1999.90;999.90;;;14.00;72.10;;;;;;4971934;28;20058;-84
2022/02/08 16:01:26;;;;;;;1999.90;999.90;;;13.90;72.50;;;;;;4972362;28;20034;-85
2022/02/08 16:14:42;;;;;;;1999.90;999.90;;;13.70;72.80;;;;;;4968085;28;20026;-83
2022/02/08 16:19:46;;;;;;;1999.90;999.90;;;13.60;72.90;;;;;;4971208;28;20039;-85
2022/02/08 16:25:14;;;;;;;1999.90;999.90;;;13.40;73.00;;;;;;4977444;28;20402;-84
2022/02/08 16:59:20;;;;;;;1999.90;999.90;;;12.60;75.00;;;;;;4973960;28;20513;-83
2022/02/08 17:01:46;;;;;;;1999.90;999.90;;;12.50;74.30;;;;;;4972602;28;20486;-83
2022/02/08 17:04:12;;;;;;;1999.90;999.90;;;12.40;74.40;;;;;;4972322;28;20099;-83
2022/02/08 17:06:39;;;;;;;1999.90;999.90;;;12.40;74.50;;;;;;4980165;28;20031;-83
2022/02/08 17:09:13;;;;;;;1999.90;999.90;;;12.30;74.60;;;;;;4974873;28;20035;-84
2022/02/08 17:11:46;;;;;;;1999.90;999.90;;;12.20;74.60;;;;;;4973941;28;20371;-82
2022/02/08 17:19:46;;;;;;;1999.90;999.90;;;12.10;74.80;;;;;;4965422;28;20039;-84
2022/02/08 17:46:53;;;;;;;1999.90;999.90;;;11.60;75.40;;;;;;4980058;28;20035;-83
2022/02/08 17:49:19;;;;;;;1506.00;755.72;;;11.50;75.50;;;;;;4973621;28;20030;-81
2022/02/08 17:51:46;;;;;;;24.05;22.95;;;11.40;75.50;;;;;;4971092;28;20039;-83
2022/02/08 17:54:13;;;;;;;23.65;22.45;;;11.40;75.50;;;;;;4968606;28;20047;-82
2022/02/08 17:56:40;;;;;;;23.58;22.48;;;11.40;75.50;;;;;;4971718;28;20038;-84
2022/02/08 17:59:06;;;;;;;22.40;21.35;;;11.30;75.50;;;;;;4965097;28;20436;-88
2022/02/08 18:01:32;;;;;;;22.70;21.60;;;11.30;75.50;;;;;;4973121;28;20038;-86
2022/02/08 18:03:58;;;;;;;21.48;20.48;;;11.30;75.60;;;;;;4972859;28;20042;-84
2022/02/08 18:06:24;;;;;;;21.08;20.08;;;11.30;76.40;;;;;;4974203;28;20030;-87
2022/02/08 18:08:50;;;;;;;21.90;20.70;;;11.20;75.60;;;;;;4973176;28;20027;-85
2022/02/08 18:11:16;;;;;;;21.55;20.30;;;11.20;75.70;;;;;;4981911;28;20474;-89
2022/02/08 18:13:44;;;;;;;20.33;19.35;;;11.20;75.80;;;;;;4973434;28;20035;-85
2022/02/08 18:16:11;;;;;;;21.38;20.38;;;11.10;75.80;;;;;;4973344;28;20042;-84
2022/02/08 18:18:42;;;;;;;22.67;21.58;;;11.10;76.60;;;;;;4971664;28;20047;-83
2022/02/08 18:56:47;;;;;;;23.55;22.35;;;10.40;76.60;;;;;;4975096;28;20497;-82
2022/02/08 19:12:42;;;;;;;21.33;20.02;;;10.10;77.00;;;;;;4975375;28;20046;-86
2022/02/08 19:15:37;;;;;;;20.88;19.77;;;10.10;77.10;;;;;;4970834;28;20030;-87
2022/02/08 19:20:35;;;;;;;22.38;21.17;;;10.00;77.00;;;;;;4974115;28;20057;-88
2022/02/08 19:23:01;;;;;;;21.75;20.75;;;10.00;77.00;;;;;;4978358;28;20568;-89
2022/02/08 19:25:27;;;;;;;21.33;20.33;;;10.00;77.00;;;;;;4966153;28;20107;-88
2022/02/08 19:27:55;;;;;;;21.98;20.98;;;10.00;77.00;;;;;;4972824;28;20030;-91
2022/02/08 19:30:21;;;;;;;22.73;21.63;;;10.00;77.00;;;;;;4957348;28;20034;-86
2022/02/08 19:32:47;;;;;;;21.88;20.88;;;10.00;77.00;;;;;;4963652;28;20394;-93
2022/02/08 19:35:14;;;;;;;22.17;20.98;;;10.00;77.00;;;;;;4969752;28;20038;-90
2022/02/08 19:37:41;;;;;;;22.75;21.63;;;10.00;77.00;;;;;;4964901;28;20027;-90
2022/02/08 19:40:07;;;;;;;23.40;22.20;;;9.90;77.80;;;;;;4980816;28;20043;-86
2022/02/08 19:42:34;;;;;;;23.52;22.42;;;9.90;77.10;;;;;;4973385;28;20030;-89
2022/02/08 19:45:11;;;;;;;22.85;21.75;;;9.80;77.20;;;;;;4962182;28;20035;-90
2022/02/08 19:47:37;;;;;;;24.02;22.83;;;9.80;77.20;;;;;;4969393;28;20495;-90
2022/02/08 19:50:04;;;;;;;21.88;20.77;;;9.80;77.30;;;;;;4972565;28;20027;-86
2022/02/08 19:52:32;;;;;;;23.30;22.00;;;9.70;77.40;;;;;;4966665;28;20035;-92
2022/02/08 19:55:54;;;;;;;21.98;20.98;;;9.70;77.40;;;;;;4968170;28;20039;-86
2022/02/08 19:57:46;;;;;;;20.25;19.15;;;9.60;77.50;;;;;;4962256;28;20039;-86
2022/02/08 20:00:17;;;;;;;19.63;18.73;;;9.50;77.60;;;;;;4955641;28;20057;-85
2022/02/08 20:02:48;;;;;;;;;;;9.50;77.70;;;;;;4963314;28;20039;-86
2022/02/08 20:05:16;;;;;;;19.60;18.65;;;9.40;77.80;;;;;;4964752;28;19911;-89
2022/02/08 20:07:43;;;;;;;20.88;19.88;;;9.50;77.70;;;;;;4968654;28;20038;-85
2022/02/08 20:10:09;;;;;;;20.58;19.52;;;9.40;77.70;;;;;;4970513;28;20042;-83
2022/02/08 20:12:35;;;;;;;22.52;20.90;;;9.40;77.70;;;;;;4972560;28;20482;-83
2022/02/08 20:15:03;;;;;;;21.35;20.05;;;9.40;77.70;;;;;;4972705;28;20030;-83
2022/02/08 20:17:30;;;;;;;22.15;20.42;;;9.40;77.70;;;;;;4970593;28;20050;-83
2022/02/08 20:19:57;;;;;;;20.90;19.77;;;9.40;77.70;;;;;;4961147;28;20062;-84
2022/02/08 20:22:24;;;;;;;20.65;19.60;;;9.50;77.70;;;;;;4964354;28;20047;-82
2022/02/08 20:24:51;;;;;;;20.95;19.92;;;9.50;77.70;;;;;;4963847;28;20043;-85
2022/02/08 20:29:54;;;;;;;20.77;19.48;;;9.50;77.70;;;;;;4971038;28;20292;-84
2022/02/08 20:32:21;;;;;;;22.55;21.08;;;9.50;77.70;;;;;;4960258;28;20087;-84
2022/02/08 20:34:47;;;;;;;20.25;19.25;;;9.40;77.70;;;;;;4975489;28;20035;-84